Time;durP1;ratioP1;P1;durP2;ratioP2;P2;SDS_P1;SDS_P2;PMS_P1;PMS_P2;Temp;Humidity;BMP_temperature;BMP_pressure;BME280_temperature;BME280_humidity;BME280_pressure;Samples;Min_cycle;Max_cycle;Signal;HPM_P1;HPM_P2
2023/01/01 00:00:40;;;;;;;23.67;10.90;;;13.50;80.10;;;;;;5034134;28;20072;-85
2023/01/01 00:03:05;;;;;;;25.98;12.73;;;13.50;80.70;;;;;;5035416;28;20083;-83
2023/01/01 00:05:31;;;;;;;30.88;14.23;;;13.50;81.10;;;;;;5039976;28;20145;-84
2023/01/01 00:07:56;;;;;;;31.52;15.18;;;13.40;81.80;;;;;;5041339;28;20053;-85
2023/01/01 00:10:28;;;;;;;28.08;15.93;;;13.20;82.30;;;;;;5041985;28;20041;-88
2023/01/01 00:12:55;;;;;;;37.55;19.25;;;13.20;82.90;;;;;;5042676;28;20507;-87
2023/01/01 00:15:20;;;;;;;34.92;20.30;;;13.10;83.70;;;;;;5043312;28;20085;-85
2023/01/01 00:17:46;;;;;;;36.70;19.88;;;13.20;83.90;;;;;;5044037;28;20460;-87
2023/01/01 00:20:12;;;;;;;39.35;22.40;;;13.00;84.30;;;;;;5042859;28;20029;-83
2023/01/01 00:22:38;;;;;;;40.45;23.95;;;13.00;84.80;;;;;;5040662;28;20081;-83
2023/01/01 00:25:04;;;;;;;39.63;22.23;;;12.90;86.00;;;;;;5057633;28;20079;-83
2023/01/01 00:27:30;;;;;;;56.10;33.75;;;12.90;86.00;;;;;;5030325;28;20672;-82
2023/01/01 00:29:55;;;;;;;33.53;20.67;;;12.80;86.10;;;;;;5041956;28;20044;-82
2023/01/01 00:32:21;;;;;;;39.97;19.70;;;12.80;86.40;;;;;;5044531;28;20087;-85
2023/01/01 00:34:47;;;;;;;41.83;19.52;;;12.70;86.50;;;;;;5056871;28;20420;-86
2023/01/01 00:37:13;;;;;;;36.10;19.20;;;12.70;86.60;;;;;;5036589;28;20045;-86
2023/01/01 00:39:39;;;;;;;38.05;20.40;;;12.70;86.60;;;;;;5025029;28;20080;-84
2023/01/01 00:42:05;;;;;;;43.88;22.05;;;12.70;86.30;;;;;;5042203;28;20103;-85
2023/01/01 00:44:30;;;;;;;37.55;23.52;;;12.70;86.40;;;;;;5046576;28;20040;-83
2023/01/01 00:46:56;;;;;;;48.17;25.30;;;12.80;86.20;;;;;;5042908;28;20044;-83
2023/01/01 00:49:21;;;;;;;47.13;25.90;;;12.70;86.10;;;;;;5042245;28;20106;-89
2023/01/01 00:51:47;;;;;;;47.25;26.33;;;12.70;86.00;;;;;;5044038;28;20049;-84
2023/01/01 00:54:13;;;;;;;45.05;28.50;;;12.80;85.70;;;;;;5027731;28;20041;-84
2023/01/01 00:56:38;;;;;;;48.22;27.60;;;12.80;85.50;;;;;;5041342;28;20049;-83
2023/01/01 00:59:04;;;;;;;47.30;27.27;;;12.80;85.00;;;;;;5040857;28;20128;-87
2023/01/01 01:01:30;;;;;;;49.42;26.77;;;12.90;84.70;;;;;;5025930;28;20047;-86
2023/01/01 01:03:56;;;;;;;48.13;26.92;;;12.90;84.60;;;;;;5029611;28;20336;-86
2023/01/01 01:06:21;;;;;;;48.33;27.35;;;13.00;84.20;;;;;;5043452;28;20052;-84
2023/01/01 01:08:47;;;;;;;39.78;24.45;;;13.00;84.00;;;;;;5029787;28;20583;-84
2023/01/01 01:11:19;;;;;;;41.78;25.20;;;13.10;83.20;;;;;;5030083;28;20048;-85
2023/01/01 01:13:47;;;;;;;40.13;25.33;;;13.10;83.00;;;;;;5036850;28;20418;-85
2023/01/01 01:16:16;;;;;;;46.08;26.52;;;13.20;83.00;;;;;;5038655;28;20108;-83
2023/01/01 01:18:43;;;;;;;47.70;26.05;;;13.20;82.80;;;;;;5038874;28;20068;-84
2023/01/01 01:21:09;;;;;;;47.53;26.13;;;13.20;82.60;;;;;;5042397;28;20041;-84
2023/01/01 01:23:35;;;;;;;36.85;25.63;;;13.20;82.50;;;;;;5046327;28;20051;-85
2023/01/01 01:26:09;;;;;;;43.78;27.65;;;13.30;82.40;;;;;;5046052;28;20045;-83
2023/01/01 01:28:34;;;;;;;50.47;27.88;;;13.20;82.70;;;;;;5026889;28;20051;-84
2023/01/01 01:31:00;;;;;;;45.65;28.38;;;13.30;82.60;;;;;;5046186;28;20049;-85
2023/01/01 01:33:26;;;;;;;48.08;28.38;;;13.20;82.90;;;;;;5047212;28;20072;-90
2023/01/01 01:35:51;;;;;;;52.20;28.45;;;13.20;83.20;;;;;;5040383;28;20400;-84
2023/01/01 01:38:17;;;;;;;46.92;27.75;;;13.10;83.40;;;;;;5045765;28;20048;-83
2023/01/01 01:40:43;;;;;;;50.13;29.75;;;13.00;83.80;;;;;;5045158;28;20087;-84
2023/01/01 01:43:20;;;;;;;52.70;31.67;;;13.10;84.20;;;;;;5041229;28;20040;-84
2023/01/01 01:45:46;;;;;;;49.13;30.77;;;13.00;84.90;;;;;;5044462;28;20227;-82
2023/01/01 01:48:11;;;;;;;49.55;28.00;;;12.90;85.00;;;;;;5039455;28;20048;-87
2023/01/01 01:50:40;;;;;;;55.75;33.15;;;12.90;85.00;;;;;;5047294;28;20574;-85
2023/01/01 01:53:11;;;;;;;47.45;29.65;;;12.80;85.50;;;;;;5047732;28;20550;-83
2023/01/01 01:55:44;;;;;;;45.30;28.48;;;12.90;85.20;;;;;;5046374;28;20048;-81
2023/01/01 01:58:11;;;;;;;43.22;27.10;;;12.80;85.00;;;;;;5034758;28;20053;-83
2023/01/01 02:00:36;;;;;;;44.70;27.02;;;12.90;84.80;;;;;;5044683;28;20068;-83
2023/01/01 02:03:06;;;;;;;46.10;26.85;;;12.90;84.70;;;;;;5025367;28;20066;-83
2023/01/01 02:05:33;;;;;;;51.28;27.98;;;12.90;84.60;;;;;;5044722;28;20053;-83
2023/01/01 02:08:00;;;;;;;48.47;26.90;;;12.90;84.60;;;;;;5035492;28;20439;-87
2023/01/01 02:10:26;;;;;;;45.25;28.10;;;12.90;84.60;;;;;;5044605;28;20114;-85
2023/01/01 02:12:52;;;;;;;39.88;26.40;;;12.90;84.80;;;;;;5039017;28;20049;-84
2023/01/01 02:15:19;;;;;;;51.97;28.58;;;12.90;84.80;;;;;;5044490;28;20095;-85
2023/01/01 02:17:51;;;;;;;45.58;26.85;;;12.90;84.90;;;;;;5044730;28;20041;-84
2023/01/01 02:20:42;;;;;;;46.25;24.00;;;12.80;84.80;;;;;;5027430;28;20446;-87
2023/01/01 02:23:21;;;;;;;42.20;23.00;;;12.90;84.40;;;;;;5021017;28;20088;-85
2023/01/01 02:26:41;;;;;;;41.38;24.33;;;13.00;84.40;;;;;;5036550;28;20045;-86
2023/01/01 02:29:45;;;;;;;44.08;23.55;;;12.90;84.40;;;;;;5045471;28;20089;-88
2023/01/01 02:32:23;;;;;;;43.80;22.27;;;12.90;84.00;;;;;;5045443;28;20103;-86
2023/01/01 02:35:33;;;;;;;34.85;20.55;;;12.90;83.90;;;;;;5033708;28;20080;-89
2023/01/01 02:37:49;;;;;;;34.72;21.13;;;13.00;84.10;;;;;;5039383;28;20052;-88
2023/01/01 02:40:17;;;;;;;33.08;18.23;;;13.00;84.10;;;;;;5041538;28;20520;-87
2023/01/01 02:42:43;;;;;;;37.25;18.13;;;13.00;83.70;;;;;;5036474;28;20059;-82
2023/01/01 02:45:10;;;;;;;38.42;17.90;;;13.00;83.40;;;;;;5038525;28;20439;-83
2023/01/01 02:47:37;;;;;;;28.00;16.80;;;13.10;83.20;;;;;;5043022;28;20052;-84
2023/01/01 02:50:10;;;;;;;37.30;18.60;;;13.00;83.00;;;;;;5044018;28;20047;-87
2023/01/01 02:52:46;;;;;;;34.95;15.85;;;13.00;83.00;;;;;;5041393;28;20072;-83
2023/01/01 02:55:38;;;;;;;26.20;13.82;;;13.00;82.80;;;;;;5058443;28;20040;-83
2023/01/01 03:01:17;;;;;;;29.48;12.50;;;13.10;82.50;;;;;;5045183;28;20056;-85
2023/01/01 03:04:05;;;;;;;25.70;12.07;;;13.10;82.30;;;;;;5031609;28;20118;-83
2023/01/01 03:06:40;;;;;;;24.30;11.45;;;13.20;81.90;;;;;;5022998;28;20060;-83
2023/01/01 03:09:41;;;;;;;28.63;10.55;;;13.20;81.90;;;;;;5042618;28;20120;-86
2023/01/01 03:12:38;;;;;;;23.52;10.73;;;13.20;81.10;;;;;;5041634;28;20044;-85
2023/01/01 03:15:13;;;;;;;22.25;10.88;;;13.20;80.50;;;;;;5054211;28;20062;-89
2023/01/01 03:18:05;;;;;;;25.58;10.75;;;13.20;81.50;;;;;;5026988;28;20455;-84
2023/01/01 03:20:35;;;;;;;25.90;9.43;;;13.20;80.50;;;;;;5040831;28;20071;-88
2023/01/01 03:23:12;;;;;;;18.02;8.48;;;13.20;80.80;;;;;;5034784;28;20045;-87
2023/01/01 03:25:50;;;;;;;20.13;7.93;;;13.40;80.20;;;;;;5041819;28;20132;-85
2023/01/01 03:28:26;;;;;;;19.38;7.97;;;13.40;79.60;;;;;;5028003;28;20382;-83
2023/01/01 03:30:52;;;;;;;19.38;6.90;;;13.40;79.50;;;;;;5038048;28;20046;-85
2023/01/01 03:33:38;;;;;;;14.48;6.40;;;13.40;79.30;;;;;;5038851;28;20052;-84
2023/01/01 03:36:17;;;;;;;18.13;6.22;;;13.50;79.70;;;;;;5044878;28;20053;-87
2023/01/01 03:38:54;;;;;;;18.13;5.40;;;13.50;79.70;;;;;;5043495;28;20044;-87
2023/01/01 03:41:26;;;;;;;17.27;5.20;;;13.50;79.40;;;;;;5043941;28;20052;-83
2023/01/01 03:44:12;;;;;;;18.30;5.25;;;13.50;79.80;;;;;;5041677;28;20086;-87
2023/01/01 03:46:38;;;;;;;14.38;4.90;;;13.50;79.10;;;;;;5042160;28;20044;-82
2023/01/01 03:49:06;;;;;;;15.13;4.60;;;13.50;79.30;;;;;;5035463;28;20428;-84
2023/01/01 03:51:38;;;;;;;;;;;13.60;79.20;;;;;;5038763;28;20041;-85
2023/01/01 03:54:19;;;;;;;12.98;4.72;;;13.50;78.90;;;;;;5049708;28;20305;-86
2023/01/01 03:56:51;;;;;;;14.18;4.55;;;13.50;79.70;;;;;;5043591;28;20060;-88
2023/01/01 03:59:48;;;;;;;14.80;4.07;;;13.50;79.90;;;;;;5021405;28;20059;-87
2023/01/01 04:02:19;;;;;;;15.50;4.82;;;13.50;79.80;;;;;;5038822;28;20052;-90
2023/01/01 04:04:47;;;;;;;14.02;4.55;;;13.40;80.00;;;;;;5044916;28;20467;-90
2023/01/01 04:07:12;;;;;;;17.60;5.43;;;13.40;80.30;;;;;;5057523;28;20044;-90
2023/01/01 04:09:42;;;;;;;14.95;5.35;;;13.30;80.70;;;;;;5043235;28;20054;-90
2023/01/01 04:12:09;;;;;;;18.10;4.97;;;13.20;81.00;;;;;;5043223;28;20045;-90
2023/01/01 04:14:41;;;;;;;20.60;6.28;;;13.20;81.20;;;;;;5042278;28;20215;-83
2023/01/01 04:17:09;;;;;;;12.80;5.90;;;13.20;81.50;;;;;;5042930;28;20079;-88
2023/01/01 04:19:35;;;;;;;13.10;4.70;;;13.30;82.00;;;;;;5045533;28;20041;-84
2023/01/01 04:22:01;;;;;;;21.45;5.80;;;13.00;82.40;;;;;;5043181;28;20564;-86
2023/01/01 04:24:27;;;;;;;20.98;6.18;;;13.00;83.60;;;;;;5042390;28;20041;-84
2023/01/01 04:26:52;;;;;;;17.98;6.50;;;12.80;85.10;;;;;;5043632;28;20511;-89
2023/01/01 04:29:19;;;;;;;20.80;6.05;;;12.70;86.40;;;;;;5043638;28;20102;-88
2023/01/01 04:31:45;;;;;;;16.80;5.57;;;12.50;88.10;;;;;;5038039;28;20052;-91
2023/01/01 04:34:10;;;;;;;17.70;4.90;;;12.50;87.50;;;;;;5036790;28;20048;-85
2023/01/01 04:36:36;;;;;;;14.15;5.13;;;12.40;87.50;;;;;;5043300;28;20132;-83
2023/01/01 04:39:03;;;;;;;19.00;5.00;;;12.40;87.40;;;;;;5047866;28;20534;-85
2023/01/01 04:41:28;;;;;;;14.13;5.20;;;12.40;87.80;;;;;;5042425;28;20564;-88
2023/01/01 04:43:54;;;;;;;15.50;5.30;;;12.40;88.30;;;;;;5033018;28;20120;-89
2023/01/01 04:46:21;;;;;;;16.35;4.97;;;12.30;88.40;;;;;;5046227;28;20060;-87
2023/01/01 04:48:47;;;;;;;15.55;4.45;;;12.30;88.50;;;;;;5046067;28;20492;-86
2023/01/01 04:51:15;;;;;;;14.38;3.60;;;12.30;88.20;;;;;;5046116;28;20079;-82
2023/01/01 04:53:41;;;;;;;11.45;3.75;;;12.40;87.40;;;;;;5047375;28;20504;-82
2023/01/01 04:56:07;;;;;;;17.95;3.92;;;12.50;86.50;;;;;;5040326;28;20045;-82
2023/01/01 04:58:35;;;;;;;14.40;3.60;;;12.50;86.30;;;;;;5041769;28;20141;-86
2023/01/01 05:01:00;;;;;;;17.13;3.78;;;12.50;86.00;;;;;;5041377;28;20044;-82
2023/01/01 05:03:27;;;;;;;17.05;3.95;;;12.60;84.90;;;;;;5047004;28;20538;-86
2023/01/01 05:06:07;;;;;;;13.93;3.53;;;12.70;84.70;;;;;;5047407;28;20473;-90
2023/01/01 05:08:35;;;;;;;17.90;3.15;;;12.70;84.10;;;;;;5040058;28;20057;-83
2023/01/01 05:11:05;;;;;;;9.75;3.25;;;12.70;84.20;;;;;;5043432;28;20599;-84
2023/01/01 05:13:33;;;;;;;15.55;3.17;;;12.80;83.90;;;;;;5039887;28;20894;-86
2023/01/01 05:16:02;;;;;;;9.15;2.67;;;12.80;83.60;;;;;;5049542;28;20090;-85
2023/01/01 05:18:27;;;;;;;11.90;2.88;;;12.80;83.30;;;;;;5045764;28;20520;-83
2023/01/01 05:20:59;;;;;;;13.07;3.05;;;12.80;82.80;;;;;;5046007;28;20069;-84
2023/01/01 05:23:24;;;;;;;12.27;3.08;;;12.90;82.80;;;;;;5044775;28;20106;-87
2023/01/01 05:25:50;;;;;;;10.38;2.90;;;12.90;82.30;;;;;;5046502;28;20052;-85
2023/01/01 05:28:16;;;;;;;12.77;2.78;;;12.90;82.30;;;;;;5045227;28;20071;-85
2023/01/01 05:30:41;;;;;;;13.15;2.90;;;12.80;82.10;;;;;;5043510;28;20052;-84
2023/01/01 05:33:07;;;;;;;11.63;2.88;;;12.80;82.40;;;;;;5039859;28;20076;-83
2023/01/01 05:35:32;;;;;;;11.82;2.53;;;12.90;82.10;;;;;;5040053;28;20451;-82
2023/01/01 05:37:59;;;;;;;10.15;2.60;;;12.80;82.10;;;;;;5047386;28;20033;-84
2023/01/01 05:40:24;;;;;;;13.63;2.75;;;12.80;81.90;;;;;;5042998;28;20051;-84
2023/01/01 05:42:50;;;;;;;12.35;3.67;;;12.80;81.50;;;;;;5042070;28;20419;-83
2023/01/01 05:45:16;;;;;;;12.60;2.47;;;12.80;80.90;;;;;;5045506;28;20052;-88
2023/01/01 05:47:41;;;;;;;10.25;2.42;;;12.80;80.10;;;;;;5045318;28;20149;-88
2023/01/01 05:50:08;;;;;;;8.82;2.20;;;12.80;79.80;;;;;;5047254;28;20029;-85
2023/01/01 05:52:33;;;;;;;8.60;2.42;;;12.90;79.50;;;;;;5037222;28;20064;-85
2023/01/01 05:54:59;;;;;;;12.07;2.72;;;12.90;78.80;;;;;;5044636;28;20041;-83
2023/01/01 05:57:27;;;;;;;8.80;2.10;;;13.00;78.80;;;;;;5023283;28;20048;-88
2023/01/01 05:59:53;;;;;;;11.57;2.80;;;12.90;78.70;;;;;;5042487;28;20136;-84
2023/01/01 06:02:18;;;;;;;8.52;2.28;;;12.90;78.80;;;;;;5037822;28;20388;-83
2023/01/01 06:04:44;;;;;;;10.60;2.08;;;12.90;79.00;;;;;;5044119;28;20158;-89
2023/01/01 06:07:10;;;;;;;8.30;1.85;;;12.90;78.80;;;;;;5042430;28;20041;-83
2023/01/01 06:09:35;;;;;;;10.10;2.30;;;12.80;78.80;;;;;;5044578;28;20377;-84
2023/01/01 06:12:01;;;;;;;6.95;1.58;;;12.80;78.80;;;;;;5047302;28;20044;-83
2023/01/01 06:14:26;;;;;;;8.82;2.00;;;12.80;79.00;;;;;;5042652;28;20558;-83
2023/01/01 06:16:52;;;;;;;7.90;1.73;;;12.80;78.70;;;;;;5041627;28;20037;-85
2023/01/01 06:19:17;;;;;;;7.57;1.80;;;12.70;78.70;;;;;;5045744;28;20037;-83
2023/01/01 06:21:43;;;;;;;5.97;1.55;;;12.70;78.20;;;;;;5039399;28;20905;-83
2023/01/01 06:24:09;;;;;;;8.70;1.50;;;12.70;78.80;;;;;;5037222;28;20053;-83
2023/01/01 06:26:34;;;;;;;10.02;1.90;;;12.60;77.10;;;;;;5043650;28;20068;-85
2023/01/01 06:29:01;;;;;;;7.57;1.30;;;12.70;76.80;;;;;;5032163;28;20052;-83
2023/01/01 06:31:28;;;;;;;7.15;1.77;;;12.60;77.00;;;;;;5043271;28;20087;-85
2023/01/01 06:33:54;;;;;;;5.75;1.23;;;12.60;76.30;;;;;;5044941;28;20045;-84
2023/01/01 06:36:22;;;;;;;3.20;1.30;;;12.60;75.90;;;;;;5040793;28;20116;-85
2023/01/01 06:38:52;;;;;;;4.03;1.05;;;12.60;76.20;;;;;;5045876;28;20547;-84
2023/01/01 06:41:23;;;;;;;5.43;1.15;;;12.60;75.40;;;;;;5041991;28;20119;-83
2023/01/01 06:43:49;;;;;;;4.72;0.98;;;12.50;75.50;;;;;;5043745;28;20120;-83
2023/01/01 06:46:28;;;;;;;6.95;1.60;;;12.60;74.90;;;;;;5043559;28;20132;-84
2023/01/01 06:48:58;;;;;;;6.22;1.48;;;12.60;74.00;;;;;;5040137;28;20040;-82
2023/01/01 06:51:26;;;;;;;6.38;1.13;;;12.60;74.30;;;;;;5047924;28;20095;-83
2023/01/01 06:53:52;;;;;;;4.75;1.33;;;12.60;74.50;;;;;;5049794;28;20100;-83
2023/01/01 06:56:19;;;;;;;7.05;1.10;;;12.60;74.40;;;;;;5039328;28;20084;-82
2023/01/01 06:58:45;;;;;;;4.95;1.23;;;12.50;74.90;;;;;;5043378;28;20055;-83
2023/01/01 07:01:16;;;;;;;5.90;1.27;;;12.50;74.00;;;;;;5042430;28;20820;-85
2023/01/01 07:03:42;;;;;;;7.70;1.35;;;12.40;74.70;;;;;;5058804;28;20084;-87
2023/01/01 07:06:09;;;;;;;8.75;1.40;;;12.50;74.30;;;;;;5029293;28;20044;-84
2023/01/01 07:08:35;;;;;;;9.25;1.60;;;12.40;74.90;;;;;;5045117;28;20037;-84
2023/01/01 07:11:01;;;;;;;9.20;1.55;;;12.40;74.70;;;;;;5042809;28;20040;-83
2023/01/01 07:13:28;;;;;;;8.95;1.70;;;12.40;75.00;;;;;;5043913;28;20041;-83
2023/01/01 07:15:54;;;;;;;6.53;1.38;;;12.40;75.10;;;;;;5034800;28;20443;-83
2023/01/01 07:18:22;;;;;;;8.82;1.98;;;12.30;74.90;;;;;;5040376;28;20050;-83
2023/01/01 07:20:51;;;;;;;10.55;1.65;;;12.30;75.10;;;;;;5039186;28;20060;-83
2023/01/01 07:23:16;;;;;;;12.70;2.00;;;12.30;75.50;;;;;;5043169;28;20035;-82
2023/01/01 07:25:42;;;;;;;12.98;2.60;;;12.30;75.70;;;;;;5045304;28;20053;-84
2023/01/01 07:28:08;;;;;;;11.77;1.80;;;12.20;76.00;;;;;;5043204;28;20051;-84
2023/01/01 07:30:34;;;;;;;11.38;1.85;;;12.20;76.50;;;;;;5065065;28;20059;-86
2023/01/01 07:32:59;;;;;;;15.38;2.38;;;12.10;76.00;;;;;;5043818;28;20404;-83
2023/01/01 07:35:25;;;;;;;10.85;1.90;;;12.20;76.20;;;;;;5024479;28;20040;-83
2023/01/01 07:37:50;;;;;;;11.88;1.85;;;12.20;76.10;;;;;;5042866;28;20072;-86
2023/01/01 07:40:16;;;;;;;13.25;2.10;;;12.10;76.20;;;;;;5026586;28;20048;-87
2023/01/01 07:42:41;;;;;;;11.82;1.98;;;12.10;76.70;;;;;;5032441;28;20049;-89
2023/01/01 07:45:10;;;;;;;10.95;2.60;;;12.00;76.70;;;;;;5042790;28;20051;-87
2023/01/01 07:47:35;;;;;;;13.82;2.25;;;12.10;76.80;;;;;;5043027;28;20049;-90
2023/01/01 07:50:01;;;;;;;11.02;2.00;;;12.00;76.90;;;;;;5043163;28;20059;-86
2023/01/01 07:52:27;;;;;;;12.60;2.08;;;12.00;77.40;;;;;;5030371;28;20049;-87
2023/01/01 07:54:53;;;;;;;13.40;2.08;;;12.00;77.20;;;;;;5041433;28;20045;-83
2023/01/01 07:57:18;;;;;;;11.57;2.50;;;12.00;77.40;;;;;;5045696;28;20033;-90
2023/01/01 07:59:44;;;;;;;13.32;1.83;;;12.00;77.60;;;;;;5048043;28;20114;-90
2023/01/01 08:02:11;;;;;;;18.13;3.13;;;11.90;77.80;;;;;;5043383;28;20033;-89
2023/01/01 08:04:37;;;;;;;11.70;2.10;;;12.00;77.60;;;;;;5044640;28;20057;-86
2023/01/01 08:07:03;;;;;;;16.60;2.17;;;12.00;78.00;;;;;;5037379;28;20084;-88
2023/01/01 08:09:29;;;;;;;18.23;2.38;;;11.90;78.00;;;;;;5041016;28;20095;-86
2023/01/01 08:11:57;;;;;;;10.50;1.90;;;11.90;78.60;;;;;;5035847;28;20658;-85
2023/01/01 08:14:24;;;;;;;13.35;2.78;;;11.80;77.70;;;;;;5047558;28;20060;-84
2023/01/01 08:16:50;;;;;;;14.35;2.45;;;11.90;78.10;;;;;;5046770;28;20045;-86
2023/01/01 08:19:15;;;;;;;16.42;2.95;;;11.90;78.10;;;;;;5046907;28;20049;-85
2023/01/01 08:21:41;;;;;;;12.30;2.10;;;11.90;78.10;;;;;;5048941;28;20130;-85
2023/01/01 08:24:07;;;;;;;16.52;2.67;;;11.90;77.80;;;;;;5048046;28;20037;-86
2023/01/01 08:26:35;;;;;;;16.67;2.83;;;11.80;78.20;;;;;;5046612;28;20489;-88
2023/01/01 08:29:05;;;;;;;14.20;2.57;;;11.80;78.40;;;;;;5043301;28;20045;-88
2023/01/01 08:31:32;;;;;;;10.70;2.53;;;11.90;78.40;;;;;;5047190;28;20051;-85
2023/01/01 08:33:57;;;;;;;17.20;2.38;;;11.80;78.60;;;;;;5029956;28;20045;-84
2023/01/01 08:36:23;;;;;;;16.42;2.60;;;11.80;78.70;;;;;;5044618;28;20045;-88
2023/01/01 08:38:49;;;;;;;15.30;2.38;;;11.70;78.90;;;;;;5038863;28;20041;-84
2023/01/01 08:41:14;;;;;;;15.85;2.70;;;11.80;79.00;;;;;;5041303;28;20043;-83
2023/01/01 08:43:40;;;;;;;16.00;2.72;;;11.70;78.80;;;;;;5039720;28;20041;-83
2023/01/01 08:46:05;;;;;;;16.02;2.28;;;11.70;79.10;;;;;;5031489;28;20094;-83
2023/01/01 08:48:31;;;;;;;16.13;2.22;;;11.80;79.10;;;;;;5038995;28;20128;-85
2023/01/01 08:50:59;;;;;;;15.35;2.60;;;11.70;79.20;;;;;;5038460;28;20047;-85
2023/01/01 08:53:25;;;;;;;17.17;2.63;;;11.70;79.30;;;;;;5042663;28;20052;-86
2023/01/01 08:56:00;;;;;;;11.95;2.17;;;11.70;79.60;;;;;;5039213;28;20057;-83
2023/01/01 08:58:26;;;;;;;20.52;3.55;;;11.70;79.80;;;;;;5040013;28;20045;-86
2023/01/01 09:00:52;;;;;;;16.58;2.53;;;11.70;79.70;;;;;;5042683;28;20044;-85
2023/01/01 09:03:19;;;;;;;17.92;2.72;;;11.60;79.80;;;;;;5032434;28;20441;-87
2023/01/01 09:05:44;;;;;;;19.58;2.58;;;11.70;80.00;;;;;;5033630;28;20053;-88
2023/01/01 09:08:14;;;;;;;18.80;2.30;;;11.70;79.50;;;;;;5040153;28;20110;-83
2023/01/01 09:10:42;;;;;;;14.63;2.83;;;11.70;79.70;;;;;;5041315;28;20746;-87
2023/01/01 09:13:09;;;;;;;17.65;3.33;;;11.70;80.00;;;;;;5022358;28;20040;-84
2023/01/01 09:15:34;;;;;;;19.70;2.60;;;11.70;80.10;;;;;;5039765;28;20044;-84
2023/01/01 09:18:00;;;;;;;17.80;2.92;;;11.70;80.10;;;;;;5037482;28;20431;-85
2023/01/01 09:20:26;;;;;;;14.35;2.63;;;11.70;80.30;;;;;;5040863;28;20047;-85
2023/01/01 09:22:51;;;;;;;13.63;2.30;;;11.70;80.40;;;;;;5039267;28;20419;-84
2023/01/01 09:25:17;;;;;;;14.98;2.40;;;11.70;80.50;;;;;;5040879;28;20052;-87
2023/01/01 09:27:43;;;;;;;15.52;2.17;;;11.70;80.50;;;;;;5038938;28;20504;-84
2023/01/01 09:30:09;;;;;;;9.43;2.05;;;11.70;80.50;;;;;;5037036;28;20033;-84
2023/01/01 09:32:35;;;;;;;15.80;2.50;;;11.70;80.70;;;;;;5041236;28;20041;-84
2023/01/01 09:35:00;;;;;;;16.90;2.90;;;11.70;80.80;;;;;;5022311;28;20048;-84
2023/01/01 09:37:26;;;;;;;16.02;2.20;;;11.70;81.80;;;;;;5039941;28;20045;-84
2023/01/01 09:39:52;;;;;;;15.63;1.85;;;11.70;81.10;;;;;;5043720;28;20041;-84
2023/01/01 09:42:23;;;;;;;16.48;2.70;;;11.70;81.10;;;;;;5042770;28;20037;-86
2023/01/01 09:45:01;;;;;;;13.35;1.98;;;11.60;81.10;;;;;;5023442;28;20565;-85
2023/01/01 09:47:37;;;;;;;16.83;2.72;;;11.60;81.20;;;;;;5044488;28;20048;-84
2023/01/01 09:50:26;;;;;;;12.15;2.17;;;11.70;81.00;;;;;;5028544;28;20049;-83
2023/01/01 09:52:58;;;;;;;13.95;2.17;;;11.60;81.10;;;;;;5042833;28;20053;-86
2023/01/01 09:55:33;;;;;;;13.73;2.88;;;11.70;80.80;;;;;;5041460;28;20529;-85
2023/01/01 09:57:59;;;;;;;11.88;1.95;;;11.70;80.90;;;;;;5026011;28;20067;-84
2023/01/01 10:00:25;;;;;;;18.60;3.10;;;11.70;80.90;;;;;;5044745;28;20033;-85
2023/01/01 10:03:15;;;;;;;17.13;2.80;;;11.70;80.90;;;;;;5044104;28;20049;-87
2023/01/01 10:06:12;;;;;;;17.50;3.03;;;11.70;80.90;;;;;;5041711;28;20044;-86
2023/01/01 10:09:00;;;;;;;13.13;2.38;;;11.70;81.00;;;;;;5038242;28;20041;-84
2023/01/01 10:11:30;;;;;;;11.65;2.53;;;11.70;80.90;;;;;;5024564;28;20063;-87
2023/01/01 10:13:59;;;;;;;14.57;2.33;;;11.70;81.10;;;;;;5037418;28;20029;-86
2023/01/01 10:16:38;;;;;;;16.35;2.58;;;11.70;81.30;;;;;;5035361;28;20048;-85
2023/01/01 10:19:35;;;;;;;17.40;2.95;;;11.60;81.60;;;;;;5037777;28;20041;-84
2023/01/01 10:22:08;;;;;;;14.68;2.70;;;11.60;81.20;;;;;;5033786;28;20120;-85
2023/01/01 10:24:42;;;;;;;17.48;2.50;;;11.60;81.10;;;;;;5037662;28;20033;-86
2023/01/01 10:27:21;;;;;;;16.67;2.58;;;11.50;81.20;;;;;;5020516;28;20052;-84
2023/01/01 10:29:48;;;;;;;;;;;11.50;81.40;;;;;;5040311;28;20606;-86
2023/01/01 10:32:41;;;;;;;10.65;2.20;;;11.50;81.40;;;;;;5041812;28;20494;-86
2023/01/01 10:35:13;;;;;;;11.70;2.20;;;11.50;81.00;;;;;;5035821;28;20147;-84
2023/01/01 10:37:40;;;;;;;15.82;2.55;;;11.50;80.90;;;;;;5037845;28;20041;-84
2023/01/01 10:40:18;;;;;;;17.92;2.38;;;11.50;81.00;;;;;;5037598;28;20037;-85
2023/01/01 10:42:52;;;;;;;16.08;2.25;;;11.50;80.90;;;;;;5039642;28;20250;-86
2023/01/01 10:45:37;;;;;;;15.85;5.07;;;11.50;80.90;;;;;;5040830;28;20057;-85
2023/01/01 10:48:22;;;;;;;15.23;2.38;;;11.60;80.90;;;;;;5038413;28;20048;-84
2023/01/01 10:50:55;;;;;;;18.75;2.45;;;11.60;80.80;;;;;;5028692;28;20472;-84
2023/01/01 10:53:31;;;;;;;15.05;2.40;;;11.60;80.40;;;;;;5032011;28;20052;-84
2023/01/01 10:56:21;;;;;;;12.43;2.35;;;11.60;80.50;;;;;;5022609;28;20068;-84
2023/01/01 10:58:55;;;;;;;15.55;2.65;;;11.60;80.10;;;;;;5036319;28;20467;-87
2023/01/01 11:01:23;;;;;;;12.05;2.22;;;11.60;80.10;;;;;;5030677;28;20037;-85
2023/01/01 11:03:53;;;;;;;10.98;1.80;;;11.50;80.10;;;;;;5038551;28;20061;-84
2023/01/01 11:06:34;;;;;;;15.52;1.80;;;11.60;80.00;;;;;;5033106;28;20500;-84
2023/01/01 11:09:05;;;;;;;15.48;2.40;;;11.60;79.70;;;;;;5020351;28;20033;-89
2023/01/01 11:11:34;;;;;;;12.68;2.78;;;11.50;79.70;;;;;;5038837;28;20087;-86
2023/01/01 11:14:07;;;;;;;18.08;3.03;;;11.60;79.50;;;;;;5021181;28;20087;-85
2023/01/01 11:16:38;;;;;;;10.35;2.22;;;11.60;79.60;;;;;;5021035;28;20051;-84
2023/01/01 11:19:07;;;;;;;10.80;2.03;;;11.60;79.40;;;;;;5036841;28;20056;-84
2023/01/01 11:21:34;;;;;;;12.60;2.28;;;11.60;79.10;;;;;;5039896;28;20136;-84
2023/01/01 11:24:19;;;;;;;14.23;2.45;;;11.70;79.10;;;;;;5038511;28;20480;-84
2023/01/01 11:26:45;;;;;;;12.88;1.88;;;11.60;78.60;;;;;;5020931;28;20170;-84
2023/01/01 11:29:21;;;;;;;13.93;2.20;;;11.70;78.70;;;;;;5036226;28;20049;-86
2023/01/01 11:31:47;;;;;;;15.48;2.20;;;11.80;78.20;;;;;;5037371;28;20148;-84
2023/01/01 11:34:42;;;;;;;10.60;2.17;;;11.70;78.20;;;;;;5038888;28;20049;-83
2023/01/01 11:37:37;;;;;;;13.52;2.50;;;11.70;78.00;;;;;;5020058;28;20102;-85
2023/01/01 11:40:05;;;;;;;16.17;2.15;;;11.70;77.90;;;;;;5038752;28;20051;-87
2023/01/01 11:42:45;;;;;;;11.63;2.10;;;11.70;77.60;;;;;;5042886;28;20041;-89
2023/01/01 11:45:35;;;;;;;18.42;2.72;;;11.80;77.60;;;;;;5035169;28;20834;-87
2023/01/01 11:48:04;;;;;;;16.08;2.60;;;11.80;77.20;;;;;;5053394;28;20107;-85
2023/01/01 11:50:37;;;;;;;21.52;2.78;;;11.80;77.40;;;;;;5035162;28;20029;-87
2023/01/01 11:53:21;;;;;;;12.30;2.28;;;11.90;77.30;;;;;;5037383;28;20033;-85
2023/01/01 11:56:13;;;;;;;17.42;2.55;;;11.90;77.00;;;;;;5038487;28;20132;-85
2023/01/01 11:58:55;;;;;;;19.75;2.70;;;11.90;77.00;;;;;;5023853;28;20037;-89
2023/01/01 12:01:36;;;;;;;18.90;2.50;;;12.00;77.20;;;;;;5037457;28;20040;-87
2023/01/01 12:04:10;;;;;;;14.95;2.30;;;12.00;76.60;;;;;;5039884;28;20396;-83
2023/01/01 12:06:43;;;;;;;16.80;2.28;;;12.10;77.10;;;;;;5038157;28;20603;-82
2023/01/01 12:09:18;;;;;;;12.15;2.10;;;12.10;76.70;;;;;;5036721;28;20140;-92
2023/01/01 12:12:12;;;;;;;16.83;2.30;;;12.30;76.40;;;;;;5037102;28;20053;-83
2023/01/01 12:14:46;;;;;;;14.23;2.30;;;12.40;76.60;;;;;;5028264;28;20048;-89
2023/01/01 12:17:33;;;;;;;14.07;2.65;;;12.50;76.40;;;;;;5038241;28;20048;-89
2023/01/01 12:20:05;;;;;;;15.00;2.58;;;12.60;75.60;;;;;;5035526;28;20040;-84
2023/01/01 12:22:31;;;;;;;12.00;2.40;;;12.60;75.90;;;;;;5038788;28;20053;-86
2023/01/01 12:24:57;;;;;;;18.80;2.75;;;12.60;75.60;;;;;;5037932;28;20466;-89
2023/01/01 12:27:42;;;;;;;14.00;2.20;;;12.50;76.20;;;;;;5038913;28;20045;-82
2023/01/01 12:30:13;;;;;;;16.42;2.50;;;12.50;76.00;;;;;;5035402;28;20060;-83
2023/01/01 12:33:15;;;;;;;17.42;2.30;;;12.50;76.00;;;;;;5036226;28;21162;-84
2023/01/01 12:36:03;;;;;;;13.20;2.22;;;12.40;75.90;;;;;;5036344;28;20496;-84
2023/01/01 12:38:39;;;;;;;15.23;2.60;;;12.40;76.00;;;;;;5037247;28;20051;-90
2023/01/01 12:41:17;;;;;;;20.15;2.55;;;12.40;76.70;;;;;;5033165;28;21033;-85
2023/01/01 12:43:52;;;;;;;13.03;2.23;;;12.40;76.60;;;;;;5036568;28;20045;-83
2023/01/01 12:46:18;;;;;;;19.88;2.22;;;12.30;76.90;;;;;;5036743;28;20048;-88
2023/01/01 12:49:22;;;;;;;18.55;2.65;;;12.40;77.00;;;;;;5037488;28;20754;-84
2023/01/01 12:52:01;;;;;;;19.80;2.28;;;12.40;77.10;;;;;;5036207;28;20455;-81
2023/01/01 12:54:38;;;;;;;17.38;2.53;;;12.30;77.20;;;;;;5035818;28;20049;-82
2023/01/01 12:57:12;;;;;;;21.83;2.80;;;12.30;77.10;;;;;;5035728;28;20046;-84